sensor_id;sensor_type;location;lat;lon;timestamp;P1;durP1;ratioP1;P2;durP2;ratioP2
75362;SDS011;64122;51.988;5.892;2024-01-27T00:00:22;18.40;;;3.67;;
75362;SDS011;64122;51.988;5.892;2024-01-27T00:02:51;16.67;;;3.40;;
75362;SDS011;64122;51.988;5.892;2024-01-27T00:05:23;13.48;;;3.67;;
75362;SDS011;64122;51.988;5.892;2024-01-27T00:07:52;23.88;;;4.70;;
75362;SDS011;64122;51.988;5.892;2024-01-27T00:10:21;12.63;;;3.40;;
75362;SDS011;64122;51.988;5.892;2024-01-27T00:12:50;14.38;;;3.40;;
75362;SDS011;64122;51.988;5.892;2024-01-27T00:15:19;14.98;;;4.20;;
75362;SDS011;64122;51.988;5.892;2024-01-27T00:17:49;15.30;;;3.38;;
75362;SDS011;64122;51.988;5.892;2024-01-27T00:20:18;31.88;;;14.48;;
75362;SDS011;64122;51.988;5.892;2024-01-27T00:22:50;15.57;;;3.88;;
75362;SDS011;64122;51.988;5.892;2024-01-27T00:25:19;13.60;;;3.50;;
75362;SDS011;64122;51.988;5.892;2024-01-27T00:27:48;15.32;;;3.53;;
75362;SDS011;64122;51.988;5.892;2024-01-27T00:30:17;16.27;;;3.90;;
75362;SDS011;64122;51.988;5.892;2024-01-27T00:32:46;17.42;;;3.95;;
75362;SDS011;64122;51.988;5.892;2024-01-27T00:35:16;13.50;;;3.92;;
75362;SDS011;64122;51.988;5.892;2024-01-27T00:37:45;12.57;;;3.97;;
75362;SDS011;64122;51.988;5.892;2024-01-27T00:40:17;11.90;;;3.55;;
75362;SDS011;64122;51.988;5.892;2024-01-27T00:42:46;13.73;;;3.95;;
75362;SDS011;64122;51.988;5.892;2024-01-27T00:45:15;14.10;;;3.47;;
75362;SDS011;64122;51.988;5.892;2024-01-27T00:47:44;20.83;;;3.72;;
75362;SDS011;64122;51.988;5.892;2024-01-27T00:50:13;12.95;;;3.47;;
75362;SDS011;64122;51.988;5.892;2024-01-27T00:52:43;15.02;;;3.38;;
75362;SDS011;64122;51.988;5.892;2024-01-27T00:55:12;11.13;;;3.90;;
75362;SDS011;64122;51.988;5.892;2024-01-27T00:57:44;10.70;;;4.13;;
75362;SDS011;64122;51.988;5.892;2024-01-27T01:00:13;12.73;;;3.25;;
75362;SDS011;64122;51.988;5.892;2024-01-27T01:02:43;18.20;;;3.42;;
75362;SDS011;64122;51.988;5.892;2024-01-27T01:05:13;14.10;;;3.40;;
75362;SDS011;64122;51.988;5.892;2024-01-27T01:07:42;14.02;;;3.38;;
75362;SDS011;64122;51.988;5.892;2024-01-27T01:10:11;15.50;;;3.88;;
75362;SDS011;64122;51.988;5.892;2024-01-27T01:12:40;18.38;;;4.50;;
75362;SDS011;64122;51.988;5.892;2024-01-27T01:15:12;12.98;;;3.70;;
75362;SDS011;64122;51.988;5.892;2024-01-27T01:17:41;12.95;;;3.30;;
75362;SDS011;64122;51.988;5.892;2024-01-27T01:20:11;19.58;;;3.85;;
75362;SDS011;64122;51.988;5.892;2024-01-27T01:22:41;13.25;;;3.03;;
75362;SDS011;64122;51.988;5.892;2024-01-27T01:25:10;18.98;;;3.92;;
75362;SDS011;64122;51.988;5.892;2024-01-27T01:27:39;19.30;;;4.07;;
75362;SDS011;64122;51.988;5.892;2024-01-27T01:30:11;14.88;;;4.55;;
75362;SDS011;64122;51.988;5.892;2024-01-27T01:32:41;19.90;;;3.95;;
75362;SDS011;64122;51.988;5.892;2024-01-27T01:35:10;13.20;;;3.25;;
75362;SDS011;64122;51.988;5.892;2024-01-27T01:37:39;16.73;;;3.70;;
75362;SDS011;64122;51.988;5.892;2024-01-27T01:40:09;12.40;;;3.28;;
75362;SDS011;64122;51.988;5.892;2024-01-27T01:42:39;20.02;;;3.35;;
75362;SDS011;64122;51.988;5.892;2024-01-27T01:45:11;13.77;;;3.08;;
75362;SDS011;64122;51.988;5.892;2024-01-27T01:47:40;14.80;;;3.67;;
75362;SDS011;64122;51.988;5.892;2024-01-27T01:50:10;12.05;;;3.28;;
75362;SDS011;64122;51.988;5.892;2024-01-27T01:52:39;17.95;;;5.28;;
75362;SDS011;64122;51.988;5.892;2024-01-27T01:55:09;11.30;;;3.10;;
75362;SDS011;64122;51.988;5.892;2024-01-27T01:57:38;16.10;;;3.80;;
75362;SDS011;64122;51.988;5.892;2024-01-27T02:00:08;12.93;;;3.22;;
75362;SDS011;64122;51.988;5.892;2024-01-27T02:02:42;19.08;;;3.90;;
75362;SDS011;64122;51.988;5.892;2024-01-27T02:05:12;20.60;;;3.63;;
75362;SDS011;64122;51.988;5.892;2024-01-27T02:07:41;12.73;;;4.13;;
75362;SDS011;64122;51.988;5.892;2024-01-27T02:10:12;15.65;;;4.03;;
75362;SDS011;64122;51.988;5.892;2024-01-27T02:12:43;14.75;;;3.08;;
75362;SDS011;64122;51.988;5.892;2024-01-27T02:15:12;10.93;;;2.60;;
75362;SDS011;64122;51.988;5.892;2024-01-27T02:17:44;11.20;;;3.17;;
75362;SDS011;64122;51.988;5.892;2024-01-27T02:20:14;15.13;;;3.10;;
75362;SDS011;64122;51.988;5.892;2024-01-27T02:22:43;12.07;;;3.20;;
75362;SDS011;64122;51.988;5.892;2024-01-27T02:25:15;18.40;;;3.53;;
75362;SDS011;64122;51.988;5.892;2024-01-27T02:27:44;13.35;;;2.88;;
75362;SDS011;64122;51.988;5.892;2024-01-27T02:30:13;14.52;;;3.50;;
75362;SDS011;64122;51.988;5.892;2024-01-27T02:32:43;17.38;;;3.10;;
75362;SDS011;64122;51.988;5.892;2024-01-27T02:35:12;14.98;;;3.38;;
75362;SDS011;64122;51.988;5.892;2024-01-27T02:37:41;16.95;;;3.20;;
75362;SDS011;64122;51.988;5.892;2024-01-27T02:40:11;10.48;;;3.20;;
75362;SDS011;64122;51.988;5.892;2024-01-27T02:42:43;11.10;;;2.92;;
75362;SDS011;64122;51.988;5.892;2024-01-27T02:45:12;10.60;;;3.30;;
75362;SDS011;64122;51.988;5.892;2024-01-27T02:47:41;16.90;;;3.30;;
75362;SDS011;64122;51.988;5.892;2024-01-27T02:50:10;14.48;;;4.05;;
75362;SDS011;64122;51.988;5.892;2024-01-27T02:52:40;13.00;;;3.08;;
75362;SDS011;64122;51.988;5.892;2024-01-27T02:55:09;16.45;;;3.60;;
75362;SDS011;64122;51.988;5.892;2024-01-27T02:57:40;13.98;;;3.20;;
75362;SDS011;64122;51.988;5.892;2024-01-27T03:00:12;9.15;;;2.85;;
75362;SDS011;64122;51.988;5.892;2024-01-27T03:02:42;14.18;;;2.78;;
75362;SDS011;64122;51.988;5.892;2024-01-27T03:05:11;18.30;;;4.00;;
75362;SDS011;64122;51.988;5.892;2024-01-27T03:07:41;14.73;;;2.80;;
75362;SDS011;64122;51.988;5.892;2024-01-27T03:10:10;14.73;;;3.50;;
75362;SDS011;64122;51.988;5.892;2024-01-27T03:12:39;13.68;;;3.17;;
75362;SDS011;64122;51.988;5.892;2024-01-27T03:15:11;13.32;;;3.60;;
75362;SDS011;64122;51.988;5.892;2024-01-27T03:17:40;13.13;;;3.28;;
75362;SDS011;64122;51.988;5.892;2024-01-27T03:20:10;9.00;;;3.15;;
75362;SDS011;64122;51.988;5.892;2024-01-27T03:22:39;13.38;;;3.53;;
75362;SDS011;64122;51.988;5.892;2024-01-27T03:25:09;15.75;;;3.50;;
75362;SDS011;64122;51.988;5.892;2024-01-27T03:27:39;13.45;;;4.25;;
75362;SDS011;64122;51.988;5.892;2024-01-27T03:30:11;11.50;;;3.00;;
75362;SDS011;64122;51.988;5.892;2024-01-27T03:32:40;10.80;;;3.50;;
75362;SDS011;64122;51.988;5.892;2024-01-27T03:35:09;12.82;;;3.20;;
75362;SDS011;64122;51.988;5.892;2024-01-27T03:37:39;11.38;;;3.40;;
75362;SDS011;64122;51.988;5.892;2024-01-27T03:40:08;10.88;;;3.50;;
75362;SDS011;64122;51.988;5.892;2024-01-27T03:42:38;16.58;;;3.83;;
75362;SDS011;64122;51.988;5.892;2024-01-27T03:45:08;14.57;;;3.45;;
75362;SDS011;64122;51.988;5.892;2024-01-27T03:47:39;15.43;;;3.78;;
75362;SDS011;64122;51.988;5.892;2024-01-27T03:50:09;13.35;;;3.67;;
75362;SDS011;64122;51.988;5.892;2024-01-27T03:52:38;10.57;;;3.42;;
75362;SDS011;64122;51.988;5.892;2024-01-27T03:55:08;17.35;;;3.90;;
75362;SDS011;64122;51.988;5.892;2024-01-27T03:57:37;10.05;;;3.58;;
75362;SDS011;64122;51.988;5.892;2024-01-27T04:00:07;11.85;;;3.40;;
75362;SDS011;64122;51.988;5.892;2024-01-27T04:02:40;8.90;;;3.42;;
75362;SDS011;64122;51.988;5.892;2024-01-27T04:05:09;12.60;;;3.03;;
75362;SDS011;64122;51.988;5.892;2024-01-27T04:07:39;13.48;;;3.28;;
75362;SDS011;64122;51.988;5.892;2024-01-27T04:10:09;13.77;;;3.22;;
75362;SDS011;64122;51.988;5.892;2024-01-27T04:12:38;17.75;;;3.50;;
75362;SDS011;64122;51.988;5.892;2024-01-27T04:15:09;12.65;;;2.90;;
75362;SDS011;64122;51.988;5.892;2024-01-27T04:17:42;12.50;;;3.88;;
75362;SDS011;64122;51.988;5.892;2024-01-27T04:20:11;13.10;;;2.90;;
75362;SDS011;64122;51.988;5.892;2024-01-27T04:22:40;11.77;;;3.55;;
75362;SDS011;64122;51.988;5.892;2024-01-27T04:25:09;8.88;;;3.33;;
75362;SDS011;64122;51.988;5.892;2024-01-27T04:27:39;12.23;;;2.97;;
75362;SDS011;64122;51.988;5.892;2024-01-27T04:30:11;14.90;;;3.78;;
75362;SDS011;64122;51.988;5.892;2024-01-27T04:32:43;13.23;;;3.55;;
75362;SDS011;64122;51.988;5.892;2024-01-27T04:35:14;13.30;;;3.35;;
75362;SDS011;64122;51.988;5.892;2024-01-27T04:37:44;14.73;;;3.65;;
75362;SDS011;64122;51.988;5.892;2024-01-27T04:40:13;10.93;;;3.95;;
75362;SDS011;64122;51.988;5.892;2024-01-27T04:42:42;13.13;;;4.07;;
75362;SDS011;64122;51.988;5.892;2024-01-27T04:45:14;13.05;;;3.90;;
75362;SDS011;64122;51.988;5.892;2024-01-27T04:47:46;12.88;;;3.55;;
75362;SDS011;64122;51.988;5.892;2024-01-27T04:50:15;13.90;;;3.97;;
75362;SDS011;64122;51.988;5.892;2024-01-27T04:52:45;18.75;;;4.70;;
75362;SDS011;64122;51.988;5.892;2024-01-27T04:55:14;11.50;;;4.65;;
75362;SDS011;64122;51.988;5.892;2024-01-27T04:57:43;11.60;;;4.60;;
75362;SDS011;64122;51.988;5.892;2024-01-27T05:00:13;14.55;;;3.88;;
75362;SDS011;64122;51.988;5.892;2024-01-27T05:02:43;12.43;;;4.25;;
75362;SDS011;64122;51.988;5.892;2024-01-27T05:05:16;13.98;;;4.63;;
75362;SDS011;64122;51.988;5.892;2024-01-27T05:07:45;13.27;;;4.10;;
75362;SDS011;64122;51.988;5.892;2024-01-27T05:10:14;10.50;;;3.63;;
75362;SDS011;64122;51.988;5.892;2024-01-27T05:12:44;11.68;;;3.40;;
75362;SDS011;64122;51.988;5.892;2024-01-27T05:15:13;11.88;;;4.05;;
75362;SDS011;64122;51.988;5.892;2024-01-27T05:17:42;13.30;;;4.00;;
75362;SDS011;64122;51.988;5.892;2024-01-27T05:20:11;13.65;;;4.22;;
75362;SDS011;64122;51.988;5.892;2024-01-27T05:22:43;13.20;;;4.20;;
75362;SDS011;64122;51.988;5.892;2024-01-27T05:25:12;13.23;;;4.93;;
75362;SDS011;64122;51.988;5.892;2024-01-27T05:27:42;15.73;;;5.32;;
75362;SDS011;64122;51.988;5.892;2024-01-27T05:30:12;13.20;;;4.50;;
75362;SDS011;64122;51.988;5.892;2024-01-27T05:32:41;11.27;;;4.57;;
75362;SDS011;64122;51.988;5.892;2024-01-27T05:35:11;15.45;;;4.40;;
75362;SDS011;64122;51.988;5.892;2024-01-27T05:37:42;18.50;;;5.03;;
75362;SDS011;64122;51.988;5.892;2024-01-27T05:40:12;15.90;;;5.05;;
75362;SDS011;64122;51.988;5.892;2024-01-27T05:42:41;17.77;;;5.28;;
75362;SDS011;64122;51.988;5.892;2024-01-27T05:45:11;17.08;;;4.68;;
75362;SDS011;64122;51.988;5.892;2024-01-27T05:47:40;17.05;;;5.63;;
75362;SDS011;64122;51.988;5.892;2024-01-27T05:50:10;14.77;;;4.80;;
75362;SDS011;64122;51.988;5.892;2024-01-27T05:52:39;13.45;;;4.90;;
75362;SDS011;64122;51.988;5.892;2024-01-27T05:55:11;14.68;;;5.47;;
75362;SDS011;64122;51.988;5.892;2024-01-27T05:57:42;16.58;;;4.88;;
75362;SDS011;64122;51.988;5.892;2024-01-27T06:00:12;11.55;;;4.65;;
75362;SDS011;64122;51.988;5.892;2024-01-27T06:02:42;13.73;;;5.00;;
75362;SDS011;64122;51.988;5.892;2024-01-27T06:05:11;15.13;;;4.75;;
75362;SDS011;64122;51.988;5.892;2024-01-27T06:07:40;13.55;;;5.20;;
75362;SDS011;64122;51.988;5.892;2024-01-27T06:10:14;17.50;;;5.25;;
75362;SDS011;64122;51.988;5.892;2024-01-27T06:12:44;15.02;;;5.57;;
75362;SDS011;64122;51.988;5.892;2024-01-27T06:15:13;16.73;;;5.43;;
75362;SDS011;64122;51.988;5.892;2024-01-27T06:17:42;17.23;;;5.50;;
75362;SDS011;64122;51.988;5.892;2024-01-27T06:20:12;21.10;;;5.78;;
75362;SDS011;64122;51.988;5.892;2024-01-27T06:22:42;13.70;;;5.47;;
75362;SDS011;64122;51.988;5.892;2024-01-27T06:25:11;16.85;;;5.40;;
75362;SDS011;64122;51.988;5.892;2024-01-27T06:27:43;17.00;;;5.72;;
75362;SDS011;64122;51.988;5.892;2024-01-27T06:30:13;16.90;;;5.13;;
75362;SDS011;64122;51.988;5.892;2024-01-27T06:32:43;23.52;;;5.70;;
75362;SDS011;64122;51.988;5.892;2024-01-27T06:35:12;16.77;;;5.75;;
75362;SDS011;64122;51.988;5.892;2024-01-27T06:37:41;17.58;;;5.07;;
75362;SDS011;64122;51.988;5.892;2024-01-27T06:40:11;20.60;;;6.47;;
75362;SDS011;64122;51.988;5.892;2024-01-27T06:42:43;26.00;;;7.40;;
75362;SDS011;64122;51.988;5.892;2024-01-27T06:45:13;13.88;;;5.05;;
75362;SDS011;64122;51.988;5.892;2024-01-27T06:47:42;12.43;;;5.32;;
75362;SDS011;64122;51.988;5.892;2024-01-27T06:50:11;13.93;;;5.28;;
75362;SDS011;64122;51.988;5.892;2024-01-27T06:52:41;17.38;;;5.93;;
75362;SDS011;64122;51.988;5.892;2024-01-27T06:55:11;16.85;;;5.50;;
75362;SDS011;64122;51.988;5.892;2024-01-27T06:57:41;21.25;;;5.95;;
75362;SDS011;64122;51.988;5.892;2024-01-27T07:00:13;14.70;;;5.68;;
75362;SDS011;64122;51.988;5.892;2024-01-27T07:02:43;16.05;;;6.47;;
75362;SDS011;64122;51.988;5.892;2024-01-27T07:05:13;16.63;;;6.43;;
75362;SDS011;64122;51.988;5.892;2024-01-27T07:07:43;22.58;;;6.10;;
75362;SDS011;64122;51.988;5.892;2024-01-27T07:10:12;17.45;;;5.55;;
75362;SDS011;64122;51.988;5.892;2024-01-27T07:12:44;15.15;;;5.60;;
75362;SDS011;64122;51.988;5.892;2024-01-27T07:15:13;19.50;;;6.05;;
75362;SDS011;64122;51.988;5.892;2024-01-27T07:17:42;12.95;;;5.68;;
75362;SDS011;64122;51.988;5.892;2024-01-27T07:20:12;15.73;;;5.75;;
75362;SDS011;64122;51.988;5.892;2024-01-27T07:22:41;17.88;;;6.95;;
75362;SDS011;64122;51.988;5.892;2024-01-27T07:25:10;18.67;;;6.00;;
75362;SDS011;64122;51.988;5.892;2024-01-27T07:27:39;17.17;;;6.28;;
75362;SDS011;64122;51.988;5.892;2024-01-27T07:30:12;16.80;;;5.32;;
75362;SDS011;64122;51.988;5.892;2024-01-27T07:32:43;16.33;;;6.13;;
75362;SDS011;64122;51.988;5.892;2024-01-27T07:35:12;14.82;;;5.45;;
75362;SDS011;64122;51.988;5.892;2024-01-27T07:37:41;14.95;;;6.10;;
75362;SDS011;64122;51.988;5.892;2024-01-27T07:40:11;19.15;;;8.27;;
75362;SDS011;64122;51.988;5.892;2024-01-27T07:42:41;14.98;;;6.72;;
75362;SDS011;64122;51.988;5.892;2024-01-27T07:45:12;20.58;;;7.38;;
75362;SDS011;64122;51.988;5.892;2024-01-27T07:47:42;15.52;;;7.32;;
75362;SDS011;64122;51.988;5.892;2024-01-27T07:50:11;20.40;;;6.57;;
75362;SDS011;64122;51.988;5.892;2024-01-27T07:52:40;18.45;;;7.30;;
75362;SDS011;64122;51.988;5.892;2024-01-27T07:55:09;14.18;;;6.68;;
75362;SDS011;64122;51.988;5.892;2024-01-27T07:57:39;16.30;;;6.63;;
75362;SDS011;64122;51.988;5.892;2024-01-27T08:00:08;21.67;;;6.85;;
75362;SDS011;64122;51.988;5.892;2024-01-27T08:02:41;16.00;;;6.22;;
75362;SDS011;64122;51.988;5.892;2024-01-27T08:05:10;15.45;;;6.78;;
75362;SDS011;64122;51.988;5.892;2024-01-27T08:07:39;25.48;;;8.75;;
75362;SDS011;64122;51.988;5.892;2024-01-27T08:10:08;20.02;;;7.75;;
75362;SDS011;64122;51.988;5.892;2024-01-27T08:12:38;14.98;;;7.05;;
75362;SDS011;64122;51.988;5.892;2024-01-27T08:15:07;23.73;;;7.13;;
75362;SDS011;64122;51.988;5.892;2024-01-27T08:17:36;20.52;;;8.25;;
75362;SDS011;64122;51.988;5.892;2024-01-27T08:20:09;21.15;;;9.23;;
75362;SDS011;64122;51.988;5.892;2024-01-27T08:22:39;20.65;;;6.60;;
75362;SDS011;64122;51.988;5.892;2024-01-27T08:25:08;16.25;;;6.10;;
75362;SDS011;64122;51.988;5.892;2024-01-27T08:27:38;19.05;;;7.53;;
75362;SDS011;64122;51.988;5.892;2024-01-27T08:30:07;20.20;;;6.75;;
75362;SDS011;64122;51.988;5.892;2024-01-27T08:32:37;14.35;;;6.18;;
75362;SDS011;64122;51.988;5.892;2024-01-27T08:35:09;19.08;;;7.20;;
75362;SDS011;64122;51.988;5.892;2024-01-27T08:37:41;22.05;;;8.05;;
75362;SDS011;64122;51.988;5.892;2024-01-27T08:40:10;15.50;;;7.35;;
75362;SDS011;64122;51.988;5.892;2024-01-27T08:42:40;14.35;;;6.57;;
75362;SDS011;64122;51.988;5.892;2024-01-27T08:45:09;17.45;;;6.95;;
75362;SDS011;64122;51.988;5.892;2024-01-27T08:47:38;15.23;;;7.93;;
75362;SDS011;64122;51.988;5.892;2024-01-27T08:50:10;16.83;;;6.88;;
75362;SDS011;64122;51.988;5.892;2024-01-27T08:52:40;15.77;;;7.40;;
75362;SDS011;64122;51.988;5.892;2024-01-27T08:55:09;17.75;;;7.63;;
75362;SDS011;64122;51.988;5.892;2024-01-27T08:57:38;21.92;;;10.13;;
75362;SDS011;64122;51.988;5.892;2024-01-27T09:00:08;15.68;;;6.65;;
75362;SDS011;64122;51.988;5.892;2024-01-27T09:02:38;15.25;;;7.35;;
75362;SDS011;64122;51.988;5.892;2024-01-27T09:05:10;20.10;;;7.18;;
75362;SDS011;64122;51.988;5.892;2024-01-27T09:07:39;19.38;;;6.65;;
75362;SDS011;64122;51.988;5.892;2024-01-27T09:10:09;19.25;;;6.85;;
75362;SDS011;64122;51.988;5.892;2024-01-27T09:12:41;17.73;;;7.82;;
75362;SDS011;64122;51.988;5.892;2024-01-27T09:15:11;15.30;;;7.50;;
75362;SDS011;64122;51.988;5.892;2024-01-27T09:17:40;15.68;;;6.78;;
75362;SDS011;64122;51.988;5.892;2024-01-27T09:20:12;17.25;;;6.93;;
75362;SDS011;64122;51.988;5.892;2024-01-27T09:22:41;16.88;;;7.20;;
75362;SDS011;64122;51.988;5.892;2024-01-27T09:25:13;19.77;;;6.50;;
75362;SDS011;64122;51.988;5.892;2024-01-27T09:27:42;12.88;;;6.68;;
75362;SDS011;64122;51.988;5.892;2024-01-27T09:30:12;16.75;;;6.82;;
75362;SDS011;64122;51.988;5.892;2024-01-27T09:32:42;14.05;;;7.00;;
75362;SDS011;64122;51.988;5.892;2024-01-27T09:35:13;17.42;;;7.22;;
75362;SDS011;64122;51.988;5.892;2024-01-27T09:37:43;15.43;;;7.03;;
75362;SDS011;64122;51.988;5.892;2024-01-27T09:40:12;15.48;;;6.93;;
75362;SDS011;64122;51.988;5.892;2024-01-27T09:42:41;14.18;;;6.35;;
75362;SDS011;64122;51.988;5.892;2024-01-27T09:45:19;14.88;;;6.72;;
75362;SDS011;64122;51.988;5.892;2024-01-27T09:47:49;18.02;;;7.90;;
75362;SDS011;64122;51.988;5.892;2024-01-27T09:50:23;12.93;;;6.22;;
75362;SDS011;64122;51.988;5.892;2024-01-27T09:52:53;16.90;;;6.93;;
75362;SDS011;64122;51.988;5.892;2024-01-27T09:55:23;16.48;;;7.20;;
75362;SDS011;64122;51.988;5.892;2024-01-27T09:57:52;28.83;;;7.70;;
75362;SDS011;64122;51.988;5.892;2024-01-27T10:00:22;14.60;;;6.95;;
75362;SDS011;64122;51.988;5.892;2024-01-27T10:02:51;18.05;;;8.38;;
75362;SDS011;64122;51.988;5.892;2024-01-27T10:05:25;17.02;;;6.95;;
75362;SDS011;64122;51.988;5.892;2024-01-27T10:07:56;14.05;;;7.20;;
75362;SDS011;64122;51.988;5.892;2024-01-27T10:10:25;11.40;;;6.43;;
75362;SDS011;64122;51.988;5.892;2024-01-27T10:12:54;18.35;;;8.27;;
75362;SDS011;64122;51.988;5.892;2024-01-27T10:15:27;18.55;;;7.32;;
75362;SDS011;64122;51.988;5.892;2024-01-27T10:18:04;19.83;;;7.60;;
75362;SDS011;64122;51.988;5.892;2024-01-27T10:20:36;15.52;;;7.03;;
75362;SDS011;64122;51.988;5.892;2024-01-27T10:23:12;14.63;;;7.07;;
75362;SDS011;64122;51.988;5.892;2024-01-27T10:25:41;14.68;;;6.93;;
75362;SDS011;64122;51.988;5.892;2024-01-27T10:28:11;17.48;;;7.38;;
75362;SDS011;64122;51.988;5.892;2024-01-27T10:30:41;21.98;;;7.72;;
75362;SDS011;64122;51.988;5.892;2024-01-27T10:33:10;15.38;;;6.30;;
75362;SDS011;64122;51.988;5.892;2024-01-27T10:35:44;17.98;;;7.88;;
75362;SDS011;64122;51.988;5.892;2024-01-27T10:38:13;16.90;;;6.85;;
75362;SDS011;64122;51.988;5.892;2024-01-27T10:40:42;15.00;;;6.75;;
75362;SDS011;64122;51.988;5.892;2024-01-27T10:43:12;17.35;;;8.10;;
75362;SDS011;64122;51.988;5.892;2024-01-27T10:45:43;21.90;;;7.03;;
75362;SDS011;64122;51.988;5.892;2024-01-27T10:48:13;14.15;;;5.90;;
75362;SDS011;64122;51.988;5.892;2024-01-27T10:50:44;15.95;;;6.10;;
75362;SDS011;64122;51.988;5.892;2024-01-27T10:53:19;16.23;;;6.50;;
75362;SDS011;64122;51.988;5.892;2024-01-27T10:55:54;16.33;;;6.97;;
75362;SDS011;64122;51.988;5.892;2024-01-27T10:58:26;15.80;;;6.22;;
75362;SDS011;64122;51.988;5.892;2024-01-27T11:00:56;19.30;;;7.35;;
75362;SDS011;64122;51.988;5.892;2024-01-27T11:03:27;21.08;;;7.22;;
75362;SDS011;64122;51.988;5.892;2024-01-27T11:06:00;14.93;;;6.40;;
75362;SDS011;64122;51.988;5.892;2024-01-27T11:08:30;19.63;;;6.40;;
75362;SDS011;64122;51.988;5.892;2024-01-27T11:11:01;18.17;;;7.15;;
75362;SDS011;64122;51.988;5.892;2024-01-27T11:13:31;12.52;;;6.18;;
75362;SDS011;64122;51.988;5.892;2024-01-27T11:16:03;13.00;;;5.68;;
75362;SDS011;64122;51.988;5.892;2024-01-27T11:18:32;11.77;;;5.60;;
75362;SDS011;64122;51.988;5.892;2024-01-27T11:21:04;16.13;;;5.97;;
75362;SDS011;64122;51.988;5.892;2024-01-27T11:23:34;15.18;;;6.70;;
75362;SDS011;64122;51.988;5.892;2024-01-27T11:26:04;19.75;;;6.80;;
75362;SDS011;64122;51.988;5.892;2024-01-27T11:28:34;17.65;;;7.28;;
75362;SDS011;64122;51.988;5.892;2024-01-27T11:31:04;19.55;;;7.75;;
75362;SDS011;64122;51.988;5.892;2024-01-27T11:33:39;26.75;;;11.77;;
75362;SDS011;64122;51.988;5.892;2024-01-27T11:36:20;19.63;;;7.53;;
75362;SDS011;64122;51.988;5.892;2024-01-27T11:38:51;16.33;;;7.07;;
75362;SDS011;64122;51.988;5.892;2024-01-27T11:41:25;17.42;;;6.97;;
75362;SDS011;64122;51.988;5.892;2024-01-27T11:43:55;16.42;;;6.32;;
75362;SDS011;64122;51.988;5.892;2024-01-27T11:46:25;17.85;;;5.93;;
75362;SDS011;64122;51.988;5.892;2024-01-27T11:48:54;20.10;;;6.07;;
75362;SDS011;64122;51.988;5.892;2024-01-27T11:51:27;14.38;;;5.82;;
75362;SDS011;64122;51.988;5.892;2024-01-27T11:53:56;15.10;;;5.47;;
75362;SDS011;64122;51.988;5.892;2024-01-27T11:56:26;21.08;;;9.07;;
75362;SDS011;64122;51.988;5.892;2024-01-27T11:58:56;16.88;;;6.13;;
75362;SDS011;64122;51.988;5.892;2024-01-27T12:01:25;14.48;;;7.22;;
75362;SDS011;64122;51.988;5.892;2024-01-27T12:03:54;24.83;;;5.53;;
75362;SDS011;64122;51.988;5.892;2024-01-27T12:06:23;14.07;;;4.72;;
75362;SDS011;64122;51.988;5.892;2024-01-27T12:08:55;11.50;;;5.03;;
75362;SDS011;64122;51.988;5.892;2024-01-27T12:11:25;12.60;;;5.22;;
75362;SDS011;64122;51.988;5.892;2024-01-27T12:13:56;18.77;;;5.70;;
75362;SDS011;64122;51.988;5.892;2024-01-27T12:16:25;17.38;;;6.63;;
75362;SDS011;64122;51.988;5.892;2024-01-27T12:18:54;16.15;;;4.85;;
75362;SDS011;64122;51.988;5.892;2024-01-27T12:21:26;18.17;;;7.80;;
75362;SDS011;64122;51.988;5.892;2024-01-27T12:23:56;15.30;;;6.40;;
75362;SDS011;64122;51.988;5.892;2024-01-27T12:26:28;17.10;;;6.13;;
75362;SDS011;64122;51.988;5.892;2024-01-27T12:28:59;25.58;;;9.90;;
75362;SDS011;64122;51.988;5.892;2024-01-27T12:31:28;14.60;;;5.30;;
75362;SDS011;64122;51.988;5.892;2024-01-27T12:33:57;19.90;;;8.23;;
75362;SDS011;64122;51.988;5.892;2024-01-27T12:36:30;15.80;;;5.07;;
75362;SDS011;64122;51.988;5.892;2024-01-27T12:39:00;21.95;;;5.78;;
75362;SDS011;64122;51.988;5.892;2024-01-27T12:41:30;14.50;;;4.78;;
75362;SDS011;64122;51.988;5.892;2024-01-27T12:44:00;13.75;;;5.35;;
75362;SDS011;64122;51.988;5.892;2024-01-27T12:46:30;12.52;;;3.80;;
75362;SDS011;64122;51.988;5.892;2024-01-27T12:48:59;15.25;;;4.10;;
75362;SDS011;64122;51.988;5.892;2024-01-27T12:51:31;14.30;;;4.05;;
75362;SDS011;64122;51.988;5.892;2024-01-27T12:54:00;15.73;;;4.78;;
75362;SDS011;64122;51.988;5.892;2024-01-27T12:56:30;13.15;;;4.20;;
75362;SDS011;64122;51.988;5.892;2024-01-27T12:59:00;12.30;;;4.85;;
75362;SDS011;64122;51.988;5.892;2024-01-27T13:01:33;11.75;;;4.20;;
75362;SDS011;64122;51.988;5.892;2024-01-27T13:04:02;26.50;;;8.20;;
75362;SDS011;64122;51.988;5.892;2024-01-27T13:06:34;19.35;;;5.40;;
75362;SDS011;64122;51.988;5.892;2024-01-27T13:09:04;24.42;;;7.20;;
75362;SDS011;64122;51.988;5.892;2024-01-27T13:11:33;22.15;;;7.32;;
75362;SDS011;64122;51.988;5.892;2024-01-27T13:14:02;13.68;;;4.38;;
75362;SDS011;64122;51.988;5.892;2024-01-27T13:16:32;16.90;;;3.42;;
75362;SDS011;64122;51.988;5.892;2024-01-27T13:19:01;18.25;;;4.25;;
75362;SDS011;64122;51.988;5.892;2024-01-27T13:21:31;12.68;;;3.08;;
75362;SDS011;64122;51.988;5.892;2024-01-27T13:24:03;17.10;;;5.05;;
75362;SDS011;64122;51.988;5.892;2024-01-27T13:26:33;12.50;;;4.30;;
75362;SDS011;64122;51.988;5.892;2024-01-27T13:29:03;14.63;;;3.13;;
75362;SDS011;64122;51.988;5.892;2024-01-27T13:31:33;15.00;;;4.35;;
75362;SDS011;64122;51.988;5.892;2024-01-27T13:34:02;17.17;;;5.80;;
75362;SDS011;64122;51.988;5.892;2024-01-27T13:36:34;12.38;;;5.13;;
75362;SDS011;64122;51.988;5.892;2024-01-27T13:39:03;13.18;;;4.18;;
75362;SDS011;64122;51.988;5.892;2024-01-27T13:41:32;12.82;;;3.65;;
75362;SDS011;64122;51.988;5.892;2024-01-27T13:44:03;16.85;;;4.20;;
75362;SDS011;64122;51.988;5.892;2024-01-27T13:46:32;15.13;;;4.18;;
75362;SDS011;64122;51.988;5.892;2024-01-27T13:49:01;10.13;;;3.95;;
75362;SDS011;64122;51.988;5.892;2024-01-27T13:51:33;23.42;;;8.23;;
75362;SDS011;64122;51.988;5.892;2024-01-27T13:54:03;12.98;;;4.10;;
75362;SDS011;64122;51.988;5.892;2024-01-27T13:56:35;20.48;;;7.38;;
75362;SDS011;64122;51.988;5.892;2024-01-27T13:59:04;13.63;;;4.80;;
75362;SDS011;64122;51.988;5.892;2024-01-27T14:01:34;13.75;;;3.88;;
75362;SDS011;64122;51.988;5.892;2024-01-27T14:04:03;18.25;;;6.78;;
75362;SDS011;64122;51.988;5.892;2024-01-27T14:06:36;21.45;;;3.40;;
75362;SDS011;64122;51.988;5.892;2024-01-27T14:09:05;15.82;;;3.40;;
75362;SDS011;64122;51.988;5.892;2024-01-27T14:11:36;17.10;;;4.70;;
75362;SDS011;64122;51.988;5.892;2024-01-27T14:14:05;17.70;;;4.65;;
75362;SDS011;64122;51.988;5.892;2024-01-27T14:16:34;16.05;;;3.78;;
75362;SDS011;64122;51.988;5.892;2024-01-27T14:19:03;12.82;;;3.90;;
75362;SDS011;64122;51.988;5.892;2024-01-27T14:21:33;15.85;;;5.68;;
75362;SDS011;64122;51.988;5.892;2024-01-27T14:24:06;17.08;;;4.25;;
75362;SDS011;64122;51.988;5.892;2024-01-27T14:26:36;13.68;;;3.88;;
75362;SDS011;64122;51.988;5.892;2024-01-27T14:29:06;19.55;;;4.60;;
75362;SDS011;64122;51.988;5.892;2024-01-27T14:31:36;23.30;;;10.10;;
75362;SDS011;64122;51.988;5.892;2024-01-27T14:34:05;17.27;;;3.38;;
75362;SDS011;64122;51.988;5.892;2024-01-27T14:36:37;16.30;;;6.50;;
75362;SDS011;64122;51.988;5.892;2024-01-27T14:39:07;13.30;;;3.85;;
75362;SDS011;64122;51.988;5.892;2024-01-27T14:41:36;27.33;;;7.32;;
75362;SDS011;64122;51.988;5.892;2024-01-27T14:44:06;11.38;;;4.28;;
75362;SDS011;64122;51.988;5.892;2024-01-27T14:46:37;18.77;;;5.47;;
75362;SDS011;64122;51.988;5.892;2024-01-27T14:49:06;14.35;;;3.40;;